createdAt,value
2018-12-03T00:01:52.532Z,47.11
2018-12-03T00:04:24.025Z,47.33
2018-12-03T00:06:53.705Z,46.90
2018-12-03T00:09:23.228Z,47.44
2018-12-03T00:11:52.729Z,47.36
2018-12-03T00:14:22.252Z,47.63
2018-12-03T00:16:51.722Z,47.19
2018-12-03T00:19:21.221Z,47.27
2018-12-03T00:21:50.697Z,46.89
2018-12-03T00:24:20.217Z,47.21
2018-12-03T00:26:49.718Z,47.21
2018-12-03T00:29:19.212Z,47.09
2018-12-03T00:31:48.725Z,47.01
2018-12-03T00:34:18.203Z,47.03
2018-12-03T00:36:47.708Z,47.36
2018-12-03T00:39:17.216Z,46.78
2018-12-03T00:41:46.684Z,47.34
2018-12-03T00:44:16.210Z,46.96
2018-12-03T00:46:45.692Z,47.43
2018-12-03T00:49:15.217Z,47.42
2018-12-03T00:51:44.700Z,47.15
2018-12-03T00:54:14.208Z,47.48
2018-12-03T00:56:43.721Z,47.54
2018-12-03T00:59:13.199Z,47.43
2018-12-03T01:01:42.681Z,46.95
2018-12-03T01:04:12.187Z,47.46
2018-12-03T01:06:41.662Z,46.86
2018-12-03T01:09:11.233Z,47.37
2018-12-03T01:11:40.733Z,47.27
2018-12-03T01:14:10.229Z,47.57
2018-12-03T01:16:39.741Z,47.45
2018-12-03T01:19:09.229Z,47.07
2018-12-03T01:21:38.731Z,47.21
2018-12-03T01:24:08.201Z,46.93
2018-12-03T01:26:37.672Z,47.04
2018-12-03T01:29:13.790Z,47.13
2018-12-03T01:31:43.304Z,47.55
2018-12-03T01:34:12.821Z,47.08
2018-12-03T01:36:42.309Z,47.58
2018-12-03T01:39:11.797Z,47.44
2018-12-03T01:41:41.296Z,46.85
2018-12-03T01:44:10.785Z,47.11
2018-12-03T01:46:40.280Z,47.42
2018-12-03T01:49:09.997Z,47.12
2018-12-03T01:51:39.529Z,47.47
2018-12-03T01:54:09.021Z,47.30
2018-12-03T01:56:38.521Z,46.89
2018-12-03T01:59:08.001Z,47.35
2018-12-03T02:01:37.517Z,47.01
2018-12-03T02:04:07.029Z,47.44
2018-12-03T02:06:36.525Z,46.89
2018-12-03T02:09:09.486Z,47.46
2018-12-03T02:11:39.021Z,46.97
2018-12-03T02:14:08.529Z,47.10
2018-12-03T02:16:38.034Z,47.60
2018-12-03T02:19:07.516Z,47.36
2018-12-03T02:21:37.028Z,47.46
2018-12-03T02:24:06.587Z,47.50
2018-12-03T02:26:36.121Z,46.57
2018-12-03T02:29:05.895Z,47.12
2018-12-03T02:31:35.392Z,47.14
2018-12-03T02:34:04.868Z,47.25
2018-12-03T02:36:34.373Z,46.64
2018-12-03T02:39:05.138Z,47.09
2018-12-03T02:41:34.747Z,47.03
2018-12-03T02:44:04.291Z,47.34
2018-12-03T02:46:33.836Z,47.19
2018-12-03T02:49:03.337Z,47.24
2018-12-03T02:51:32.865Z,47.04
2018-12-03T02:54:02.385Z,46.83
2018-12-03T02:56:31.899Z,47.02
2018-12-03T02:59:01.396Z,46.86
2018-12-03T03:01:31.087Z,46.95
2018-12-03T03:04:00.565Z,47.02
2018-12-03T03:06:30.084Z,46.96
2018-12-03T03:08:59.573Z,46.59
2018-12-03T03:11:29.076Z,47.00
2018-12-03T03:13:58.562Z,47.08
2018-12-03T03:16:28.185Z,47.31
2018-12-03T03:18:57.677Z,47.14
2018-12-03T03:21:27.382Z,47.09
2018-12-03T03:23:58.145Z,47.02
2018-12-03T03:26:27.709Z,46.66
2018-12-03T03:28:57.737Z,47.15
2018-12-03T03:31:28.178Z,46.93
2018-12-03T03:33:57.712Z,47.22
2018-12-03T03:36:27.267Z,46.94
2018-12-03T03:38:56.761Z,46.99
2018-12-03T03:41:26.389Z,46.87
2018-12-03T03:43:55.923Z,46.56
2018-12-03T03:46:25.427Z,46.69
2018-12-03T03:48:54.914Z,47.08
2018-12-03T03:51:24.502Z,47.00
2018-12-03T03:53:54.034Z,47.08
2018-12-03T03:56:23.578Z,46.50
2018-12-03T03:58:53.069Z,46.91
2018-12-03T04:01:22.560Z,46.82
2018-12-03T04:03:52.076Z,46.40
2018-12-03T04:06:22.043Z,47.07
2018-12-03T04:08:51.551Z,47.05
2018-12-03T04:11:21.358Z,47.02
2018-12-03T04:13:50.868Z,47.25
2018-12-03T04:16:20.369Z,47.06
2018-12-03T04:18:49.853Z,46.77
2018-12-03T04:21:19.356Z,46.44
2018-12-03T04:23:48.921Z,46.60
2018-12-03T04:26:19.015Z,47.23
2018-12-03T04:28:48.629Z,46.87
2018-12-03T04:31:18.145Z,46.60
2018-12-03T04:33:47.660Z,46.57
2018-12-03T04:36:17.165Z,47.21
2018-12-03T04:38:46.660Z,46.87
2018-12-03T04:41:16.180Z,46.74
2018-12-03T04:43:45.651Z,46.65
2018-12-03T04:46:15.149Z,46.51
2018-12-03T04:48:44.632Z,47.16
2018-12-03T04:51:14.146Z,46.47
2018-12-03T04:53:43.644Z,46.89
2018-12-03T04:56:13.132Z,46.98
2018-12-03T04:58:42.649Z,46.89
2018-12-03T05:01:12.116Z,46.56
2018-12-03T05:03:41.625Z,46.91
2018-12-03T05:06:11.177Z,46.30
2018-12-03T05:08:40.689Z,46.81
2018-12-03T05:11:10.173Z,46.33
2018-12-03T05:13:39.701Z,47.02
2018-12-03T05:16:09.189Z,46.85
2018-12-03T05:18:38.689Z,46.83
2018-12-03T05:21:08.180Z,46.65
2018-12-03T05:23:37.688Z,46.68
2018-12-03T05:26:07.472Z,46.87
2018-12-03T05:28:36.989Z,46.30
2018-12-03T05:31:06.561Z,46.76
2018-12-03T05:33:36.113Z,46.75
2018-12-03T05:36:05.669Z,46.51
2018-12-03T05:38:35.201Z,46.59
2018-12-03T05:41:04.700Z,46.55
2018-12-03T05:43:34.201Z,46.38
2018-12-03T05:46:03.753Z,46.94
2018-12-03T05:48:33.270Z,46.88
2018-12-03T05:51:02.793Z,46.67
2018-12-03T05:53:32.305Z,46.96
2018-12-03T05:56:01.777Z,46.92
2018-12-03T05:58:31.300Z,46.41
2018-12-03T06:01:00.800Z,46.55
2018-12-03T06:03:30.293Z,46.79
2018-12-03T06:05:59.777Z,46.44
2018-12-03T06:08:29.301Z,46.64
2018-12-03T06:10:58.785Z,46.60
2018-12-03T06:13:28.292Z,46.23
2018-12-03T06:15:57.769Z,46.20
2018-12-03T06:18:27.261Z,46.75
2018-12-03T06:20:56.749Z,46.71
2018-12-03T06:23:26.269Z,46.54
2018-12-03T06:25:55.829Z,46.39
2018-12-03T06:28:25.684Z,46.96
2018-12-03T06:30:55.170Z,46.57
2018-12-03T06:33:24.705Z,46.75
2018-12-03T06:35:54.216Z,46.09
2018-12-03T06:38:23.712Z,46.26
2018-12-03T06:40:53.525Z,46.16
2018-12-03T06:43:23.048Z,46.43
2018-12-03T06:45:52.576Z,45.96
2018-12-03T06:48:23.430Z,46.40
2018-12-03T06:50:52.929Z,46.03
2018-12-03T06:53:22.434Z,45.93
2018-12-03T06:55:51.980Z,46.08
2018-12-03T06:58:21.487Z,45.70
2018-12-03T07:00:50.963Z,46.48
2018-12-03T07:03:20.472Z,46.14
2018-12-03T07:05:50.222Z,46.18
2018-12-03T07:08:20.463Z,45.83
2018-12-03T07:10:49.978Z,46.05
2018-12-03T07:13:21.301Z,46.04
2018-12-03T07:15:54.876Z,46.40
2018-12-03T07:18:24.608Z,45.82
2018-12-03T07:20:54.113Z,46.11
2018-12-03T07:23:23.631Z,46.01
2018-12-03T07:25:53.349Z,45.74
2018-12-03T07:28:22.833Z,46.07
2018-12-03T07:30:52.314Z,46.19
2018-12-03T07:33:21.809Z,45.57
2018-12-03T07:35:51.294Z,45.98
2018-12-03T07:38:20.802Z,45.43
2018-12-03T07:40:50.275Z,45.60
2018-12-03T07:43:19.747Z,45.39
2018-12-03T07:45:49.217Z,45.72
2018-12-03T07:48:18.693Z,45.58
2018-12-03T07:50:48.185Z,45.80
2018-12-03T07:53:17.685Z,45.59
2018-12-03T07:55:47.161Z,45.73
2018-12-03T07:58:19.709Z,45.73
2018-12-03T08:00:51.581Z,45.31
2018-12-03T08:03:21.161Z,45.05
2018-12-03T08:05:50.669Z,45.48
2018-12-03T08:08:20.176Z,45.58
2018-12-03T08:10:51.131Z,45.75
2018-12-03T08:13:20.971Z,45.08
2018-12-03T08:15:50.516Z,45.67
2018-12-03T08:18:21.469Z,45.43
2018-12-03T08:20:53.339Z,45.51
2018-12-03T08:23:33.942Z,45.42
2018-12-03T08:26:03.918Z,45.07
2018-12-03T08:28:33.452Z,45.32
2018-12-03T08:31:03.021Z,45.55
2018-12-03T08:33:32.554Z,45.27
2018-12-03T08:36:02.091Z,44.95
2018-12-03T08:38:31.642Z,45.00
2018-12-03T08:41:05.400Z,45.37
2018-12-03T08:43:35.133Z,44.96
2018-12-03T08:46:06.623Z,44.82
2018-12-03T08:48:39.541Z,45.40
2018-12-03T08:51:09.615Z,44.92
2018-12-03T08:53:39.137Z,45.06
2018-12-03T08:56:08.641Z,45.26
2018-12-03T08:58:38.147Z,45.01
2018-12-03T09:01:11.641Z,44.78
2018-12-03T09:03:42.059Z,44.67
2018-12-03T09:06:12.782Z,44.85
2018-12-03T09:08:46.805Z,44.91
2018-12-03T09:11:16.497Z,44.68
2018-12-03T09:13:46.315Z,45.08
2018-12-03T09:16:15.811Z,44.50
2018-12-03T09:18:45.306Z,45.21
2018-12-03T09:21:17.793Z,44.94
2018-12-03T09:23:49.274Z,45.20
2018-12-03T09:26:18.882Z,45.03
2018-12-03T09:28:48.425Z,45.03
2018-12-03T09:31:19.093Z,45.19
2018-12-03T09:33:55.089Z,44.80
2018-12-03T09:36:24.736Z,44.75
2018-12-03T09:39:08.000Z,44.73
2018-12-03T09:41:37.645Z,44.60
2018-12-03T09:44:07.928Z,44.61
2018-12-03T09:46:37.453Z,44.82
2018-12-03T09:49:07.561Z,44.57
2018-12-03T09:51:37.864Z,44.80
2018-12-03T09:54:09.847Z,45.07
2018-12-03T09:56:41.893Z,44.96
2018-12-03T09:59:14.378Z,44.74
2018-12-03T10:01:45.093Z,45.01
2018-12-03T10:04:31.520Z,44.54
2018-12-03T10:07:01.025Z,44.98
2018-12-03T10:09:36.672Z,44.74
2018-12-03T10:12:07.893Z,44.70
2018-12-03T10:14:37.415Z,44.83
2018-12-03T10:17:07.546Z,44.59
2018-12-03T10:19:37.065Z,44.68
2018-12-03T10:22:07.945Z,44.58
2018-12-03T10:24:37.957Z,44.33
2018-12-03T10:27:11.043Z,44.27
2018-12-03T10:29:40.625Z,44.45
2018-12-03T10:32:10.441Z,44.56
2018-12-03T10:34:39.953Z,44.57
2018-12-03T10:37:09.461Z,44.20
2018-12-03T10:39:38.973Z,44.77
2018-12-03T10:42:12.262Z,44.00
2018-12-03T10:44:41.864Z,44.13
2018-12-03T10:47:11.410Z,44.76
2018-12-03T10:49:40.895Z,44.13
2018-12-03T10:52:10.375Z,44.78
2018-12-03T10:54:42.037Z,44.37
2018-12-03T10:57:12.080Z,44.30
2018-12-03T10:59:41.677Z,44.34
2018-12-03T11:02:16.500Z,44.45
2018-12-03T11:04:50.074Z,44.07
2018-12-03T11:07:19.624Z,44.16
2018-12-03T11:09:49.119Z,44.52
2018-12-03T11:12:18.623Z,44.28
2018-12-03T11:14:48.120Z,44.54
2018-12-03T11:17:17.634Z,44.46
2018-12-03T11:19:49.021Z,44.06
2018-12-03T11:22:22.734Z,44.31
2018-12-03T11:24:52.229Z,44.65
2018-12-03T11:27:22.300Z,44.60
2018-12-03T11:29:51.921Z,44.51
2018-12-03T11:32:22.049Z,44.13
2018-12-03T11:34:51.561Z,44.47
2018-12-03T11:37:21.757Z,44.02
2018-12-03T11:39:54.659Z,44.67
2018-12-03T11:42:25.991Z,44.00
2018-12-03T11:44:55.485Z,44.07
2018-12-03T11:47:24.988Z,44.46
2018-12-03T11:49:54.505Z,43.99
2018-12-03T11:52:24.005Z,43.91
2018-12-03T11:54:53.521Z,44.42
2018-12-03T11:57:23.022Z,44.38
2018-12-03T11:59:52.564Z,44.27
2018-12-03T12:02:22.073Z,44.20
2018-12-03T12:04:51.589Z,44.56
2018-12-03T12:07:21.075Z,44.40
2018-12-03T12:09:50.657Z,44.26
2018-12-03T12:12:20.224Z,44.09
2018-12-03T12:14:49.701Z,43.80
2018-12-03T12:17:19.216Z,44.06
2018-12-03T12:19:48.710Z,44.24
2018-12-03T12:22:18.240Z,43.83
2018-12-03T12:24:47.733Z,43.83
2018-12-03T12:27:17.225Z,43.71
2018-12-03T12:29:46.725Z,44.16
2018-12-03T12:32:16.319Z,43.91
2018-12-03T12:34:45.796Z,44.09
2018-12-03T12:37:15.308Z,44.05
2018-12-03T12:39:44.800Z,43.90
2018-12-03T12:42:14.305Z,43.80
2018-12-03T12:44:43.803Z,43.85
2018-12-03T12:47:13.304Z,44.08
2018-12-03T12:49:42.792Z,43.88
2018-12-03T12:52:12.288Z,43.82
2018-12-03T12:54:41.805Z,44.05
2018-12-03T12:57:11.294Z,44.08
2018-12-03T12:59:40.782Z,44.16
2018-12-03T13:02:11.313Z,44.54
2018-12-03T13:04:40.805Z,43.87
2018-12-03T13:07:52.060Z,44.34
2018-12-03T13:10:21.509Z,43.70
2018-12-03T13:12:52.889Z,44.06
2018-12-03T13:15:22.369Z,44.04
2018-12-03T13:17:51.849Z,43.99
2018-12-03T13:20:21.322Z,43.74
2018-12-03T13:22:50.777Z,43.78
2018-12-03T13:25:21.220Z,43.73
2018-12-03T13:27:51.921Z,44.19
2018-12-03T13:30:21.380Z,44.45
2018-12-03T13:32:50.843Z,43.78
2018-12-03T13:35:20.330Z,43.78
2018-12-03T13:37:49.917Z,43.99
2018-12-03T13:40:19.430Z,43.82
2018-12-03T13:42:49.160Z,44.20
2018-12-03T13:45:21.528Z,44.29
2018-12-03T13:47:51.420Z,44.31
2018-12-03T13:50:20.890Z,43.59
2018-12-03T13:52:50.368Z,43.78
2018-12-03T13:55:20.793Z,43.75
2018-12-03T13:57:51.966Z,43.83
2018-12-03T14:00:23.797Z,44.29
2018-12-03T14:02:57.275Z,43.89
2018-12-03T14:05:26.891Z,43.98
2018-12-03T14:08:03.169Z,44.00
2018-12-03T14:10:44.117Z,44.52
2018-12-03T14:13:25.842Z,44.11
2018-12-03T14:16:16.831Z,44.55
2018-12-03T14:18:51.134Z,44.37
2018-12-03T14:21:31.467Z,43.92
2018-12-03T14:24:01.468Z,43.75
2018-12-03T14:26:30.911Z,44.30
2018-12-03T14:29:00.405Z,44.29
2018-12-03T14:31:29.896Z,43.99
2018-12-03T14:33:59.405Z,44.23
2018-12-03T14:36:28.857Z,43.84
2018-12-03T14:38:58.344Z,43.73
2018-12-03T14:41:27.798Z,43.67
2018-12-03T14:43:57.240Z,43.91
2018-12-03T14:46:26.690Z,43.23
2018-12-03T14:48:56.125Z,43.26
2018-12-03T14:51:25.641Z,43.60
2018-12-03T14:53:55.193Z,43.42
2018-12-03T14:56:24.684Z,43.57
2018-12-03T14:58:54.126Z,43.57
2018-12-03T15:01:24.756Z,43.34
2018-12-03T15:03:54.234Z,42.90
2018-12-03T15:06:23.723Z,43.35
2018-12-03T15:08:53.228Z,42.99
2018-12-03T15:11:22.675Z,43.55
2018-12-03T15:13:53.277Z,43.04
2018-12-03T15:16:22.733Z,43.54
2018-12-03T15:18:52.775Z,43.18
2018-12-03T15:21:22.238Z,43.24
2018-12-03T15:23:51.705Z,43.42
2018-12-03T15:26:21.165Z,43.56
2018-12-03T15:28:50.616Z,43.13
2018-12-03T15:31:20.090Z,43.54
2018-12-03T15:33:49.572Z,43.25
2018-12-03T15:36:19.072Z,43.20
2018-12-03T15:38:48.632Z,43.22
2018-12-03T15:41:18.112Z,43.38
2018-12-03T15:43:47.635Z,43.22
2018-12-03T15:46:17.093Z,43.51
2018-12-03T15:48:46.646Z,43.39
2018-12-03T15:51:16.148Z,43.36
2018-12-03T15:53:45.648Z,42.94
2018-12-03T15:56:15.105Z,42.66
2018-12-03T15:58:44.620Z,43.31
2018-12-03T16:01:14.534Z,42.71
2018-12-03T16:03:44.217Z,43.56
2018-12-03T16:06:13.705Z,43.16
2018-12-03T16:08:43.232Z,42.96
2018-12-03T16:11:12.704Z,43.13
2018-12-03T16:13:42.291Z,42.80
2018-12-03T16:16:11.739Z,43.00
2018-12-03T16:18:41.210Z,42.98
2018-12-03T16:21:10.668Z,43.08
2018-12-03T16:23:40.161Z,43.12
2018-12-03T16:26:09.624Z,42.92
2018-12-03T16:28:39.147Z,43.26
2018-12-03T16:31:08.636Z,43.25
2018-12-03T16:33:38.146Z,43.05
2018-12-03T16:36:07.754Z,43.34
2018-12-03T16:38:37.314Z,43.47
2018-12-03T16:41:06.797Z,43.37
2018-12-03T16:43:36.284Z,43.20
2018-12-03T16:46:05.789Z,43.01
2018-12-03T16:48:40.457Z,43.72
2018-12-03T16:51:09.965Z,43.72
2018-12-03T16:53:39.589Z,43.06
2018-12-03T16:56:09.032Z,43.18
2018-12-03T16:58:38.511Z,43.20
2018-12-03T17:01:08.492Z,43.66
2018-12-03T17:03:37.957Z,43.30
2018-12-03T17:06:07.492Z,43.45
2018-12-03T17:08:37.153Z,43.61
2018-12-03T17:11:06.622Z,43.50
2018-12-03T17:13:36.172Z,43.64
2018-12-03T17:16:05.673Z,43.68
2018-12-03T17:18:37.204Z,43.59
2018-12-03T17:21:19.126Z,43.58
2018-12-03T17:23:59.189Z,43.09
2018-12-03T17:26:28.677Z,43.91
2018-12-03T17:29:11.345Z,43.34
2018-12-03T17:31:40.838Z,43.74
2018-12-03T17:34:10.388Z,43.68
2018-12-03T17:36:40.957Z,43.33
2018-12-03T17:39:10.426Z,43.55
2018-12-03T17:41:41.948Z,43.13
2018-12-03T17:44:11.449Z,43.32
2018-12-03T17:46:40.897Z,43.19
2018-12-03T17:49:10.352Z,43.51
2018-12-03T17:51:39.805Z,43.48
2018-12-03T17:54:10.523Z,43.42
2018-12-03T17:56:40.569Z,43.23
2018-12-03T17:59:10.078Z,43.32
2018-12-03T18:01:39.565Z,43.43
2018-12-03T18:04:13.171Z,43.31
2018-12-03T18:06:42.767Z,43.52
2018-12-03T18:09:12.290Z,43.55
2018-12-03T18:11:42.057Z,43.74
2018-12-03T18:14:11.597Z,43.63
2018-12-03T18:16:41.149Z,43.35
2018-12-03T18:19:10.687Z,43.56
2018-12-03T18:21:40.167Z,43.43
2018-12-03T18:24:09.671Z,43.69
2018-12-03T18:26:39.122Z,43.62
2018-12-03T18:29:08.681Z,43.56
2018-12-03T18:31:38.232Z,43.65
2018-12-03T18:34:07.793Z,43.29
2018-12-03T18:36:37.309Z,44.01
2018-12-03T18:39:08.815Z,43.54
2018-12-03T18:41:38.370Z,43.73
2018-12-03T18:44:08.015Z,43.81
2018-12-03T18:46:38.662Z,43.51
2018-12-03T18:49:16.726Z,43.32
2018-12-03T18:51:46.653Z,43.91
2018-12-03T18:54:16.122Z,43.69
2018-12-03T18:56:45.821Z,43.25
2018-12-03T18:59:15.385Z,43.50
2018-12-03T19:01:44.953Z,44.28
2018-12-03T19:04:15.925Z,43.70
2018-12-03T19:06:45.441Z,44.20
2018-12-03T19:09:14.930Z,44.26
2018-12-03T19:11:44.479Z,43.87
2018-12-03T19:14:13.988Z,43.67
2018-12-03T19:16:43.733Z,43.43
2018-12-03T19:19:14.242Z,43.80
2018-12-03T19:21:43.793Z,44.25
2018-12-03T19:24:13.569Z,43.80
2018-12-03T19:26:43.076Z,43.98
2018-12-03T19:29:12.765Z,43.99
2018-12-03T19:31:44.306Z,43.97
2018-12-03T19:34:15.837Z,43.52
2018-12-03T19:37:07.231Z,43.49
2018-12-03T19:39:36.775Z,43.91
2018-12-03T19:42:10.050Z,43.75
2018-12-03T19:44:39.509Z,43.68
2018-12-03T19:47:09.333Z,43.65
2018-12-03T19:49:39.781Z,43.68
2018-12-03T19:52:10.153Z,43.60
2018-12-03T19:54:39.913Z,43.98
2018-12-03T19:57:09.406Z,43.92
2018-12-03T19:59:46.707Z,43.98
2018-12-03T20:02:16.461Z,43.79
2018-12-03T20:04:52.520Z,44.24
2018-12-03T20:07:22.133Z,43.98
2018-12-03T20:09:55.621Z,43.87
2018-12-03T20:12:25.109Z,43.92
2018-12-03T20:14:54.595Z,43.68
2018-12-03T20:17:29.620Z,43.83
2018-12-03T20:19:59.090Z,44.01
2018-12-03T20:22:34.295Z,44.08
2018-12-03T20:25:10.549Z,43.94
2018-12-03T20:27:47.444Z,43.49
2018-12-03T20:30:33.787Z,43.44
2018-12-03T20:33:11.314Z,43.60
2018-12-03T20:35:49.870Z,43.24
2018-12-03T20:38:25.801Z,43.20
2018-12-03T20:41:02.200Z,43.25
2018-12-03T20:43:32.750Z,43.45
2018-12-03T20:46:19.020Z,43.19
2018-12-03T20:49:00.960Z,43.70
2018-12-03T20:51:38.303Z,43.71
2018-12-03T20:54:07.857Z,43.35
2018-12-03T20:56:38.365Z,43.51
2018-12-03T20:59:07.887Z,44.19
2018-12-03T21:01:40.888Z,43.69
2018-12-03T21:04:10.476Z,43.45
2018-12-03T21:06:39.986Z,43.86
2018-12-03T21:09:09.441Z,43.53
2018-12-03T21:11:38.949Z,43.75
2018-12-03T21:14:08.426Z,44.00
2018-12-03T21:16:37.917Z,43.85
2018-12-03T21:19:07.393Z,44.04
2018-12-03T21:21:36.897Z,44.38
2018-12-03T21:24:06.374Z,44.49
2018-12-03T21:26:35.898Z,44.55
2018-12-03T21:29:05.489Z,44.35
2018-12-03T21:31:35.005Z,44.55
2018-12-03T21:34:05.494Z,44.50
2018-12-03T21:36:35.049Z,45.11
2018-12-03T21:39:06.252Z,44.65
2018-12-03T21:41:36.910Z,45.12
2018-12-03T21:44:06.369Z,44.81
2018-12-03T21:46:35.869Z,44.51
2018-12-03T21:49:05.321Z,44.74
2018-12-03T21:51:35.864Z,44.79
2018-12-03T21:54:05.306Z,44.62
2018-12-03T21:56:34.795Z,44.84
2018-12-03T21:59:04.293Z,44.89
2018-12-03T22:01:33.787Z,44.71
2018-12-03T22:04:03.261Z,44.67
2018-12-03T22:06:32.769Z,45.05
2018-12-03T22:09:02.522Z,45.08
2018-12-03T22:11:33.154Z,44.57
2018-12-03T22:14:02.609Z,44.85
2018-12-03T22:16:32.120Z,44.74
2018-12-03T22:19:01.573Z,45.12
2018-12-03T22:21:31.028Z,44.98
2018-12-03T22:24:00.515Z,44.82
2018-12-03T22:26:29.974Z,44.61
2018-12-03T22:28:59.427Z,44.79
2018-12-03T22:31:28.900Z,44.50
2018-12-03T22:33:58.382Z,44.72
2018-12-03T22:36:27.869Z,45.01
2018-12-03T22:38:57.347Z,44.98
2018-12-03T22:41:26.826Z,44.68
2018-12-03T22:43:56.303Z,44.68
2018-12-03T22:46:25.744Z,44.96
2018-12-03T22:48:55.241Z,45.00
2018-12-03T22:51:24.706Z,44.86
2018-12-03T22:53:54.193Z,44.62
2018-12-03T22:56:23.677Z,44.57
2018-12-03T22:58:53.160Z,44.84
2018-12-03T23:01:23.621Z,44.88
2018-12-03T23:03:53.386Z,44.60
2018-12-03T23:06:22.853Z,44.94
2018-12-03T23:08:52.318Z,45.05
2018-12-03T23:11:21.765Z,44.65
2018-12-03T23:13:51.252Z,44.46
2018-12-03T23:16:20.741Z,44.60
2018-12-03T23:18:50.208Z,44.67
2018-12-03T23:21:19.669Z,44.95
2018-12-03T23:23:49.175Z,44.91
2018-12-03T23:26:18.727Z,44.67
2018-12-03T23:28:48.215Z,45.18
2018-12-03T23:31:17.701Z,44.72
2018-12-03T23:33:47.239Z,44.94
2018-12-03T23:36:16.745Z,44.44
2018-12-03T23:38:46.230Z,45.06
2018-12-03T23:41:15.698Z,44.73
2018-12-03T23:43:45.148Z,44.74
2018-12-03T23:46:15.248Z,44.35
2018-12-03T23:48:44.677Z,44.87
2018-12-03T23:51:14.113Z,44.60
2018-12-03T23:53:43.568Z,44.41
2018-12-03T23:56:13.049Z,45.08
2018-12-03T23:58:42.497Z,44.80
